This is the latest recevied weather packets stored in our database for station/object OE-11051. If no packets are shown the sender has not sent any weather packets the latest 10 day(s).
| Time | Temp. | Humidity | Pressure | Rain* | Wind** | Luminosity | Snow |
|---|---|---|---|---|---|---|---|
| 1788034280 | 17.22° C | 79% | 1015.8 hPa | 0 mm | - | 0 W/m² | - |
| 1788033907 | 17.78° C | 77% | 1015.9 hPa | 0 mm | - | 0 W/m² | - |
| 1788033307 | 17.22° C | 79% | 1015.8 hPa | 0 mm | - | 0 W/m² | - |
| 1788032480 | 17.78° C | 79% | 1015.9 hPa | 0 mm | - | 0 W/m² | - |
| 1788032107 | 17.78° C | 77% | 1015.8 hPa | 0 mm | - | 0 W/m² | - |
| 1788031507 | 18.33° C | 74% | 1015.6 hPa | 0 mm | - | 0 W/m² | - |
| 1788030680 | 18.33° C | 74% | 1015.5 hPa | 0 mm | - | 0 W/m² | - |
| 1788030307 | 18.89° C | 72% | 1015.4 hPa | 0 mm | - | 0 W/m² | - |
| 1788029707 | 19.44° C | 69% | 1015.3 hPa | 0 mm | - | 0 W/m² | - |
| 1788028880 | 19.44° C | 69% | 1015.3 hPa | 0 mm | - | 0 W/m² | - |
| 1788028507 | 20.56° C | 66% | 1015 hPa | 0 mm | - | 0 W/m² | - |
| 1788027907 | 20.56° C | 66% | 1015 hPa | 0 mm | - | 0 W/m² | - |
| 1788027080 | 22.22° C | 54% | 1014.8 hPa | 0 mm | - | 6 W/m² | - |
| 1788026707 | 22.22° C | 60% | 1014.7 hPa | 0 mm | - | 13 W/m² | - |
| 1788026107 | 23.33° C | 55% | 1014.4 hPa | 0 mm | - | 32 W/m² | - |
| 1788025280 | 23.33° C | 48% | 1014.5 hPa | 0 mm | - | 45 W/m² | - |
| 1788024907 | 23.33° C | 47% | 1014.5 hPa | 0 mm | - | 39 W/m² | - |
| 1788024307 | 23.89° C | 47% | 1014.5 hPa | 0 mm | - | 45 W/m² | - |
| 1788023480 | 23.89° C | 47% | 1014.4 hPa | 0 mm | - | 45 W/m² | - |
| 1788023106 | 24.44° C | 46% | 1014.5 hPa | 0 mm | - | 71 W/m² | - |
| 1788022507 | 24.44° C | 45% | 1014.4 hPa | 0 mm | - | 135 W/m² | - |
| 1788021680 | 24.44° C | 44% | 1014.4 hPa | 0 mm | - | 142 W/m² | - |
| 1788021307 | 25° C | 44% | 1014.4 hPa | 0 mm | - | 206 W/m² | - |
| 1788020706 | 25° C | 41% | 1014.3 hPa | 0 mm | - | 290 W/m² | - |
| 1788019880 | 25° C | 42% | 1014.5 hPa | 0 mm | - | 226 W/m² | - |
* Rain latest hour (hover to see other rain measurements)
** Current wind speed in m/s (hover to see current wind gust speed)